»·PEaware :: N8735K KSBP-KVNY

N8735K :: KSBP-KVNY

FLIGHT INFORMATION

Flight Status: Arrived
Operator: Privately registered:
United States
More flights under this callsign
Pilot: Jeff K. (12978)
Aircraft: Unknown
(F33A)
More flights by this aircraft type
Origin: KSBP San Luis Co Regl
United States
Destination: KVNY Van Nuys
United States
More flights between these airports :: More routes between these airports
Route: +
File this flight plan on PilotEdge
Remarks:
Altitude:
(Current/Filed)
0ft
Speed:
(Current/Filed)
0kts
Departed: 21-Dec-17 09:52 PM
Arrived: 21-Dec-17 10:44 PM
Distance/Time
Traveled:
123nm/0:52
Distance/Time
To Go:
Arrived

Flight Plot

Page will automatically refresh every two minutes.


Map Options




Map Legend


Flown Route
Filed Route
Departure Airport
Arrival Airport
Navaid (VOR, NDB)
Fix

Horizontal Profiles

Position Reports

Time Latitude Longitude Heading Altitude Ground
Speed
21-Dec-17 21:54 35.237738 -120.638875 281 195ft 0kts
21-Dec-17 21:55 35.237679 -120.639110 225 194ft 0kts
21-Dec-17 21:56 35.235806 -120.636422 123 205ft 15kts
21-Dec-17 21:57 35.234321 -120.633813 205 211ft 0kts
21-Dec-17 21:58 35.236172 -120.638907 302 264ft 71kts
21-Dec-17 21:59 35.240602 -120.661194 218 1595ft 92kts
21-Dec-17 22:00 35.214726 -120.648173 152 2988ft 112kts
21-Dec-17 22:01 35.188906 -120.626588 140 4266ft 114kts
21-Dec-17 22:02 35.167190 -120.595768 129 5402ft 122kts
21-Dec-17 22:03 35.145424 -120.551622 117 5518ft 176kts
21-Dec-17 22:04 35.125494 -120.503314 117 5503ft 181kts
21-Dec-17 22:05 35.108934 -120.445313 108 5501ft 180kts
21-Dec-17 22:06 35.093260 -120.387134 108 5538ft 180kts
21-Dec-17 22:07 35.074440 -120.332747 142 5512ft 178kts
21-Dec-17 22:08 35.036130 -120.293045 143 5502ft 181kts
21-Dec-17 22:09 34.998306 -120.254032 164 5549ft 175kts
21-Dec-17 22:10 34.954898 -120.227084 143 5500ft 179kts
21-Dec-17 22:11 34.916673 -120.188131 142 5498ft 179kts
21-Dec-17 22:12 34.879141 -120.149601 142 5499ft 180kts
21-Dec-17 22:13 34.840741 -120.110165 142 5517ft 182kts
21-Dec-17 22:14 34.800997 -120.073218 157 5512ft 177kts
21-Dec-17 22:15 34.756758 -120.046435 156 5535ft 177kts
21-Dec-17 22:16 34.711851 -120.019390 156 5501ft 179kts
21-Dec-17 22:17 34.667574 -119.992403 152 5500ft 179kts
21-Dec-17 22:18 34.629960 -119.952829 131 5501ft 180kts
21-Dec-17 22:19 34.603641 -119.912988 130 5500ft 182kts
21-Dec-17 22:20 34.572083 -119.865360 130 5503ft 180kts
21-Dec-17 22:21 34.535025 -119.809696 130 5510ft 183kts
21-Dec-17 22:22 34.508306 -119.769643 130 5505ft 184kts
21-Dec-17 22:23 34.473950 -119.710126 124 5501ft 184kts
21-Dec-17 22:24 34.465581 -119.672009 97 5522ft 181kts
21-Dec-17 22:25 34.462610 -119.635324 100 5537ft 174kts
21-Dec-17 22:26 34.453889 -119.578933 116 5507ft 167kts
21-Dec-17 22:27 34.446497 -119.522815 103 5500ft 168kts
21-Dec-17 22:28 34.436367 -119.467594 107 5500ft 167kts
21-Dec-17 22:29 34.425091 -119.412752 107 5502ft 169kts
21-Dec-17 22:30 34.413685 -119.357466 107 5499ft 169kts
21-Dec-17 22:31 34.402744 -119.304102 107 5500ft 167kts
21-Dec-17 22:32 34.391449 -119.248980 107 5519ft 169kts
21-Dec-17 22:33 34.380043 -119.193579 108 5499ft 168kts
21-Dec-17 22:34 34.366433 -119.139558 114 5499ft 167kts
21-Dec-17 22:35 34.353700 -119.085108 100 5496ft 169kts
21-Dec-17 22:36 34.342912 -119.030695 115 5499ft 166kts
21-Dec-17 22:37 34.327022 -118.978281 110 5499ft 167kts
21-Dec-17 22:38 34.313554 -118.924716 110 5520ft 167kts
21-Dec-17 22:39 34.299956 -118.870703 110 5476ft 169kts
21-Dec-17 22:40 34.286998 -118.815096 107 4923ft 171kts
21-Dec-17 22:41 34.276822 -118.762496 106 4291ft 146kts
21-Dec-17 22:42 34.268473 -118.716985 106 3582ft 134kts
21-Dec-17 22:43 34.261421 -118.676917 106 3526ft 122kts
21-Dec-17 22:44 34.253617 -118.633676 106 3046ft 120kts
21-Dec-17 22:45 34.248446 -118.599772 103 2542ft 95kts
21-Dec-17 22:46 34.244996 -118.567087 104 2498ft 101kts
21-Dec-17 22:47 34.245277 -118.532529 94 2091ft 103kts
21-Dec-17 22:48 34.241622 -118.500816 138 1592ft 91kts
21-Dec-17 22:49 34.221718 -118.491512 175 1031ft 75kts
21-Dec-17 22:50 34.206990 -118.490116 188 772ft 13kts
21-Dec-17 22:51 34.206630 -118.491504 264 771ft 6kts

Navigation Log

Ident Type
Flight plan parsing failed, navigation log unavailable